sensor_id;sensor_type;location;lat;lon;timestamp;pressure;altitude;pressure_sealevel;temperature;humidity
57708;BME280;43540;51.690;9.562;2023-12-04T00:01:11;99565.81;;;-2.17;100.00
57708;BME280;43540;51.690;9.562;2023-12-04T00:03:38;99559.63;;;-2.10;100.00
57708;BME280;43540;51.690;9.562;2023-12-04T00:06:06;99554.56;;;-2.13;100.00
57708;BME280;43540;51.690;9.562;2023-12-04T00:08:32;99551.00;;;-2.07;100.00
57708;BME280;43540;51.690;9.562;2023-12-04T00:10:59;99541.97;;;-2.22;100.00
57708;BME280;43540;51.690;9.562;2023-12-04T00:13:26;99543.41;;;-2.12;100.00
57708;BME280;43540;51.690;9.562;2023-12-04T00:15:52;99533.56;;;-2.27;100.00
57708;BME280;43540;51.690;9.562;2023-12-04T00:18:19;99531.91;;;-2.30;100.00
57708;BME280;43540;51.690;9.562;2023-12-04T00:20:45;99533.47;;;-2.24;100.00
57708;BME280;43540;51.690;9.562;2023-12-04T00:23:12;99500.25;;;-2.30;100.00
57708;BME280;43540;51.690;9.562;2023-12-04T00:25:39;99524.47;;;-2.08;100.00
57708;BME280;43540;51.690;9.562;2023-12-04T00:28:05;99512.34;;;-2.04;100.00
57708;BME280;43540;51.690;9.562;2023-12-04T00:30:35;99513.41;;;-2.10;100.00
57708;BME280;43540;51.690;9.562;2023-12-04T00:33:02;99504.03;;;-2.12;100.00
57708;BME280;43540;51.690;9.562;2023-12-04T00:35:28;99501.25;;;-2.05;100.00
57708;BME280;43540;51.690;9.562;2023-12-04T00:37:55;99494.31;;;-2.01;100.00
57708;BME280;43540;51.690;9.562;2023-12-04T00:40:22;99483.22;;;-2.03;100.00
57708;BME280;43540;51.690;9.562;2023-12-04T00:42:48;99475.44;;;-2.02;100.00
57708;BME280;43540;51.690;9.562;2023-12-04T00:45:15;99470.81;;;-1.89;100.00
57708;BME280;43540;51.690;9.562;2023-12-04T00:47:42;99472.50;;;-1.88;100.00
57708;BME280;43540;51.690;9.562;2023-12-04T00:50:08;99466.88;;;-2.01;100.00
57708;BME280;43540;51.690;9.562;2023-12-04T00:52:35;99467.63;;;-1.97;100.00
57708;BME280;43540;51.690;9.562;2023-12-04T00:55:02;99459.59;;;-1.86;100.00
57708;BME280;43540;51.690;9.562;2023-12-04T00:57:29;99454.00;;;-1.99;100.00
57708;BME280;43540;51.690;9.562;2023-12-04T00:59:56;99457.91;;;-1.87;100.00
57708;BME280;43540;51.690;9.562;2023-12-04T01:02:22;99457.97;;;-1.89;100.00
57708;BME280;43540;51.690;9.562;2023-12-04T01:04:49;99451.88;;;-1.86;100.00
57708;BME280;43540;51.690;9.562;2023-12-04T01:07:16;99455.22;;;-1.83;100.00
57708;BME280;43540;51.690;9.562;2023-12-04T01:09:42;99445.78;;;-1.82;100.00
57708;BME280;43540;51.690;9.562;2023-12-04T01:12:09;99441.44;;;-1.80;100.00
57708;BME280;43540;51.690;9.562;2023-12-04T01:14:36;99440.31;;;-1.72;100.00
57708;BME280;43540;51.690;9.562;2023-12-04T01:17:04;99432.94;;;-1.82;100.00
57708;BME280;43540;51.690;9.562;2023-12-04T01:19:32;99434.38;;;-1.74;100.00
57708;BME280;43540;51.690;9.562;2023-12-04T01:22:00;99423.09;;;-1.69;100.00
57708;BME280;43540;51.690;9.562;2023-12-04T01:24:26;99422.94;;;-1.65;100.00
57708;BME280;43540;51.690;9.562;2023-12-04T01:26:53;99427.22;;;-1.64;100.00
57708;BME280;43540;51.690;9.562;2023-12-04T01:29:19;99420.97;;;-1.57;100.00
57708;BME280;43540;51.690;9.562;2023-12-04T01:31:45;99406.50;;;-1.59;100.00
57708;BME280;43540;51.690;9.562;2023-12-04T01:34:12;99410.59;;;-1.54;100.00
57708;BME280;43540;51.690;9.562;2023-12-04T01:36:42;99406.31;;;-1.53;100.00
57708;BME280;43540;51.690;9.562;2023-12-04T01:39:08;99407.94;;;-1.51;100.00
57708;BME280;43540;51.690;9.562;2023-12-04T01:41:35;99406.91;;;-1.45;100.00
57708;BME280;43540;51.690;9.562;2023-12-04T01:44:01;99412.38;;;-1.56;100.00
57708;BME280;43540;51.690;9.562;2023-12-04T01:46:28;99401.31;;;-1.86;100.00
57708;BME280;43540;51.690;9.562;2023-12-04T01:48:55;99398.41;;;-1.75;100.00
57708;BME280;43540;51.690;9.562;2023-12-04T01:51:22;99403.19;;;-1.63;100.00
57708;BME280;43540;51.690;9.562;2023-12-04T01:53:49;99395.97;;;-1.52;100.00
57708;BME280;43540;51.690;9.562;2023-12-04T01:56:16;99396.91;;;-1.54;100.00
57708;BME280;43540;51.690;9.562;2023-12-04T01:58:44;99388.38;;;-1.56;100.00
57708;BME280;43540;51.690;9.562;2023-12-04T02:01:10;99390.38;;;-1.64;100.00
57708;BME280;43540;51.690;9.562;2023-12-04T02:03:37;99379.94;;;-1.60;100.00
57708;BME280;43540;51.690;9.562;2023-12-04T02:06:04;99376.13;;;-1.48;100.00
57708;BME280;43540;51.690;9.562;2023-12-04T02:08:31;99371.41;;;-1.60;100.00
57708;BME280;43540;51.690;9.562;2023-12-04T02:10:58;99360.69;;;-1.48;100.00
57708;BME280;43540;51.690;9.562;2023-12-04T02:13:25;99363.44;;;-1.53;100.00
57708;BME280;43540;51.690;9.562;2023-12-04T02:15:53;99367.56;;;-1.75;100.00
57708;BME280;43540;51.690;9.562;2023-12-04T02:18:20;99369.53;;;-1.55;100.00
57708;BME280;43540;51.690;9.562;2023-12-04T02:20:48;99379.75;;;-1.54;100.00
57708;BME280;43540;51.690;9.562;2023-12-04T02:23:15;99368.28;;;-1.70;100.00
57708;BME280;43540;51.690;9.562;2023-12-04T02:25:41;99358.28;;;-1.53;100.00
57708;BME280;43540;51.690;9.562;2023-12-04T02:28:09;99366.69;;;-1.48;100.00
57708;BME280;43540;51.690;9.562;2023-12-04T02:30:38;99352.66;;;-1.64;100.00
57708;BME280;43540;51.690;9.562;2023-12-04T02:33:06;99351.41;;;-1.79;100.00
57708;BME280;43540;51.690;9.562;2023-12-04T02:35:34;99350.41;;;-1.48;100.00
57708;BME280;43540;51.690;9.562;2023-12-04T02:38:02;99356.16;;;-1.40;100.00
57708;BME280;43540;51.690;9.562;2023-12-04T02:40:29;99351.84;;;-1.39;100.00
57708;BME280;43540;51.690;9.562;2023-12-04T02:42:55;99351.53;;;-1.30;100.00
57708;BME280;43540;51.690;9.562;2023-12-04T02:45:22;99345.50;;;-1.29;100.00
57708;BME280;43540;51.690;9.562;2023-12-04T02:47:48;99341.16;;;-1.27;100.00
57708;BME280;43540;51.690;9.562;2023-12-04T02:50:15;99349.38;;;-1.42;100.00
57708;BME280;43540;51.690;9.562;2023-12-04T02:52:41;99348.66;;;-1.46;100.00
57708;BME280;43540;51.690;9.562;2023-12-04T02:55:08;99344.81;;;-1.34;100.00
57708;BME280;43540;51.690;9.562;2023-12-04T02:57:34;99342.78;;;-1.25;100.00
57708;BME280;43540;51.690;9.562;2023-12-04T03:00:01;99335.25;;;-1.31;100.00
57708;BME280;43540;51.690;9.562;2023-12-04T03:02:28;99331.13;;;-1.35;100.00
57708;BME280;43540;51.690;9.562;2023-12-04T03:04:55;99328.38;;;-1.30;100.00
57708;BME280;43540;51.690;9.562;2023-12-04T03:07:21;99334.09;;;-1.22;100.00
57708;BME280;43540;51.690;9.562;2023-12-04T03:09:50;99328.97;;;-1.22;100.00
57708;BME280;43540;51.690;9.562;2023-12-04T03:12:17;99320.25;;;-1.18;100.00
57708;BME280;43540;51.690;9.562;2023-12-04T03:14:43;99316.78;;;-1.17;100.00
57708;BME280;43540;51.690;9.562;2023-12-04T03:17:10;99312.53;;;-1.18;100.00
57708;BME280;43540;51.690;9.562;2023-12-04T03:19:37;99316.03;;;-1.21;100.00
57708;BME280;43540;51.690;9.562;2023-12-04T03:22:04;99314.31;;;-1.20;100.00
57708;BME280;43540;51.690;9.562;2023-12-04T03:24:30;99305.66;;;-1.18;100.00
57708;BME280;43540;51.690;9.562;2023-12-04T03:26:57;99292.81;;;-1.19;100.00
57708;BME280;43540;51.690;9.562;2023-12-04T03:29:23;99288.50;;;-1.17;100.00
57708;BME280;43540;51.690;9.562;2023-12-04T03:31:50;99282.38;;;-1.15;100.00
57708;BME280;43540;51.690;9.562;2023-12-04T03:34:17;99289.31;;;-1.17;100.00
57708;BME280;43540;51.690;9.562;2023-12-04T03:36:44;99291.00;;;-1.16;100.00
57708;BME280;43540;51.690;9.562;2023-12-04T03:39:10;99288.22;;;-1.09;100.00
57708;BME280;43540;51.690;9.562;2023-12-04T03:41:37;99290.56;;;-1.03;100.00
57708;BME280;43540;51.690;9.562;2023-12-04T03:44:04;99284.00;;;-1.12;100.00
57708;BME280;43540;51.690;9.562;2023-12-04T03:46:30;99287.03;;;-1.24;100.00
57708;BME280;43540;51.690;9.562;2023-12-04T03:48:57;99279.75;;;-1.13;100.00
57708;BME280;43540;51.690;9.562;2023-12-04T03:51:24;99282.25;;;-1.35;100.00
57708;BME280;43540;51.690;9.562;2023-12-04T03:53:50;99276.41;;;-1.15;100.00
57708;BME280;43540;51.690;9.562;2023-12-04T03:56:17;99272.03;;;-1.13;100.00
57708;BME280;43540;51.690;9.562;2023-12-04T03:58:43;99267.66;;;-1.11;100.00
57708;BME280;43540;51.690;9.562;2023-12-04T04:01:10;99259.91;;;-1.09;100.00
57708;BME280;43540;51.690;9.562;2023-12-04T04:03:36;99265.00;;;-1.08;100.00
57708;BME280;43540;51.690;9.562;2023-12-04T04:06:03;99258.97;;;-1.07;100.00
57708;BME280;43540;51.690;9.562;2023-12-04T04:08:30;99252.84;;;-1.04;100.00
57708;BME280;43540;51.690;9.562;2023-12-04T04:10:56;99252.06;;;-1.06;100.00
57708;BME280;43540;51.690;9.562;2023-12-04T04:13:22;99254.38;;;-0.99;100.00
57708;BME280;43540;51.690;9.562;2023-12-04T04:15:49;99252.56;;;-0.97;100.00
57708;BME280;43540;51.690;9.562;2023-12-04T04:18:15;99241.25;;;-0.93;100.00
57708;BME280;43540;51.690;9.562;2023-12-04T04:20:43;99241.44;;;-0.97;100.00
57708;BME280;43540;51.690;9.562;2023-12-04T04:23:10;99237.28;;;-1.01;100.00
57708;BME280;43540;51.690;9.562;2023-12-04T04:25:36;99239.03;;;-1.02;100.00
57708;BME280;43540;51.690;9.562;2023-12-04T04:28:03;99248.59;;;-1.05;100.00
57708;BME280;43540;51.690;9.562;2023-12-04T04:30:29;99238.47;;;-1.10;100.00
57708;BME280;43540;51.690;9.562;2023-12-04T04:32:56;99240.06;;;-1.06;100.00
57708;BME280;43540;51.690;9.562;2023-12-04T04:35:22;99230.03;;;-1.13;100.00
57708;BME280;43540;51.690;9.562;2023-12-04T04:37:49;99242.91;;;-1.13;100.00
57708;BME280;43540;51.690;9.562;2023-12-04T04:40:17;99232.53;;;-1.12;100.00
57708;BME280;43540;51.690;9.562;2023-12-04T04:42:43;99228.16;;;-1.08;100.00
57708;BME280;43540;51.690;9.562;2023-12-04T04:45:10;99222.75;;;-1.02;100.00
57708;BME280;43540;51.690;9.562;2023-12-04T04:47:36;99220.75;;;-0.94;100.00
57708;BME280;43540;51.690;9.562;2023-12-04T04:50:03;99226.16;;;-1.02;100.00
57708;BME280;43540;51.690;9.562;2023-12-04T04:52:30;99223.66;;;-1.03;100.00
57708;BME280;43540;51.690;9.562;2023-12-04T04:54:58;99220.81;;;-0.96;100.00
57708;BME280;43540;51.690;9.562;2023-12-04T04:57:24;99217.50;;;-0.99;100.00
57708;BME280;43540;51.690;9.562;2023-12-04T04:59:51;99221.22;;;-1.06;100.00
57708;BME280;43540;51.690;9.562;2023-12-04T05:02:17;99211.75;;;-1.06;100.00
57708;BME280;43540;51.690;9.562;2023-12-04T05:04:44;99213.69;;;-1.12;100.00
57708;BME280;43540;51.690;9.562;2023-12-04T05:07:11;99213.88;;;-1.17;100.00
57708;BME280;43540;51.690;9.562;2023-12-04T05:09:37;99212.75;;;-1.10;100.00
57708;BME280;43540;51.690;9.562;2023-12-04T05:12:04;99209.00;;;-1.01;100.00
57708;BME280;43540;51.690;9.562;2023-12-04T05:14:30;99210.84;;;-1.05;100.00
57708;BME280;43540;51.690;9.562;2023-12-04T05:16:57;99202.41;;;-1.08;100.00
57708;BME280;43540;51.690;9.562;2023-12-04T05:19:23;99202.91;;;-0.99;100.00
57708;BME280;43540;51.690;9.562;2023-12-04T05:21:50;99201.47;;;-1.06;100.00
57708;BME280;43540;51.690;9.562;2023-12-04T05:24:17;99196.38;;;-1.07;100.00
57708;BME280;43540;51.690;9.562;2023-12-04T05:26:43;99203.53;;;-1.16;100.00
57708;BME280;43540;51.690;9.562;2023-12-04T05:29:10;99199.53;;;-1.01;100.00
57708;BME280;43540;51.690;9.562;2023-12-04T05:31:36;99195.59;;;-1.09;100.00
57708;BME280;43540;51.690;9.562;2023-12-04T05:34:03;99196.38;;;-1.07;100.00
57708;BME280;43540;51.690;9.562;2023-12-04T05:36:29;99196.31;;;-1.06;100.00
57708;BME280;43540;51.690;9.562;2023-12-04T05:38:56;99194.78;;;-1.11;100.00
57708;BME280;43540;51.690;9.562;2023-12-04T05:41:26;99191.88;;;-1.02;100.00
57708;BME280;43540;51.690;9.562;2023-12-04T05:43:53;99188.38;;;-1.00;100.00
57708;BME280;43540;51.690;9.562;2023-12-04T05:46:19;99177.06;;;-0.96;100.00
57708;BME280;43540;51.690;9.562;2023-12-04T05:48:46;99188.31;;;-0.98;100.00
57708;BME280;43540;51.690;9.562;2023-12-04T05:51:12;99182.31;;;-0.99;100.00
57708;BME280;43540;51.690;9.562;2023-12-04T05:53:40;99174.75;;;-1.03;100.00
57708;BME280;43540;51.690;9.562;2023-12-04T05:56:06;99177.13;;;-0.97;100.00
57708;BME280;43540;51.690;9.562;2023-12-04T05:58:35;99175.38;;;-0.97;100.00
57708;BME280;43540;51.690;9.562;2023-12-04T06:01:01;99174.13;;;-1.08;100.00
57708;BME280;43540;51.690;9.562;2023-12-04T06:03:28;99177.63;;;-1.11;100.00
57708;BME280;43540;51.690;9.562;2023-12-04T06:05:55;99176.69;;;-1.08;100.00
57708;BME280;43540;51.690;9.562;2023-12-04T06:08:24;99177.34;;;-1.03;100.00
57708;BME280;43540;51.690;9.562;2023-12-04T06:10:51;99181.09;;;-1.12;100.00
57708;BME280;43540;51.690;9.562;2023-12-04T06:13:17;99172.72;;;-1.17;100.00
57708;BME280;43540;51.690;9.562;2023-12-04T06:15:44;99165.91;;;-1.18;100.00
57708;BME280;43540;51.690;9.562;2023-12-04T06:18:11;99174.47;;;-1.18;100.00
57708;BME280;43540;51.690;9.562;2023-12-04T06:20:37;99167.69;;;-1.20;100.00
57708;BME280;43540;51.690;9.562;2023-12-04T06:23:04;99166.75;;;-1.18;100.00
57708;BME280;43540;51.690;9.562;2023-12-04T06:25:30;99165.00;;;-1.17;100.00
57708;BME280;43540;51.690;9.562;2023-12-04T06:27:57;99169.06;;;-1.11;100.00
57708;BME280;43540;51.690;9.562;2023-12-04T06:30:24;99159.03;;;-1.18;100.00
57708;BME280;43540;51.690;9.562;2023-12-04T06:32:50;99168.06;;;-1.07;100.00
57708;BME280;43540;51.690;9.562;2023-12-04T06:35:17;99165.38;;;-1.04;100.00
57708;BME280;43540;51.690;9.562;2023-12-04T06:37:47;99172.38;;;-1.08;100.00
57708;BME280;43540;51.690;9.562;2023-12-04T06:40:14;99169.13;;;-1.13;100.00
57708;BME280;43540;51.690;9.562;2023-12-04T06:42:44;99170.22;;;-1.19;100.00
57708;BME280;43540;51.690;9.562;2023-12-04T06:45:11;99180.16;;;-1.09;100.00
57708;BME280;43540;51.690;9.562;2023-12-04T06:47:37;99175.03;;;-1.11;100.00
57708;BME280;43540;51.690;9.562;2023-12-04T06:50:06;99170.81;;;-1.12;100.00
57708;BME280;43540;51.690;9.562;2023-12-04T06:52:32;99170.16;;;-1.17;100.00
57708;BME280;43540;51.690;9.562;2023-12-04T06:54:59;99176.34;;;-1.23;100.00
57708;BME280;43540;51.690;9.562;2023-12-04T06:57:26;99173.50;;;-1.15;100.00
57708;BME280;43540;51.690;9.562;2023-12-04T06:59:52;99165.59;;;-1.10;100.00
57708;BME280;43540;51.690;9.562;2023-12-04T07:02:19;99163.34;;;-1.18;100.00
57708;BME280;43540;51.690;9.562;2023-12-04T07:04:45;99155.06;;;-1.26;100.00
57708;BME280;43540;51.690;9.562;2023-12-04T07:07:12;99160.03;;;-1.22;100.00
57708;BME280;43540;51.690;9.562;2023-12-04T07:09:38;99157.06;;;-1.34;100.00
57708;BME280;43540;51.690;9.562;2023-12-04T07:12:05;99160.47;;;-1.34;100.00
57708;BME280;43540;51.690;9.562;2023-12-04T07:14:33;99160.53;;;-1.35;100.00
57708;BME280;43540;51.690;9.562;2023-12-04T07:17:00;99161.53;;;-1.39;100.00
57708;BME280;43540;51.690;9.562;2023-12-04T07:19:27;99163.34;;;-1.41;100.00
57708;BME280;43540;51.690;9.562;2023-12-04T07:21:53;99160.13;;;-1.72;100.00
57708;BME280;43540;51.690;9.562;2023-12-04T07:24:20;99167.25;;;-1.55;100.00
57708;BME280;43540;51.690;9.562;2023-12-04T07:26:46;99156.66;;;-1.47;100.00
57708;BME280;43540;51.690;9.562;2023-12-04T07:29:13;99156.06;;;-1.54;100.00
57708;BME280;43540;51.690;9.562;2023-12-04T07:31:44;99154.22;;;-1.50;100.00
57708;BME280;43540;51.690;9.562;2023-12-04T07:34:11;99160.72;;;-1.65;100.00
57708;BME280;43540;51.690;9.562;2023-12-04T07:36:37;99154.94;;;-1.47;100.00
57708;BME280;43540;51.690;9.562;2023-12-04T07:39:04;99150.31;;;-1.37;100.00
57708;BME280;43540;51.690;9.562;2023-12-04T07:41:33;99131.06;;;-1.50;100.00
57708;BME280;43540;51.690;9.562;2023-12-04T07:43:59;99152.91;;;-1.37;100.00
57708;BME280;43540;51.690;9.562;2023-12-04T07:46:26;99136.09;;;-1.24;100.00
57708;BME280;43540;51.690;9.562;2023-12-04T07:48:52;99133.34;;;-1.19;100.00
57708;BME280;43540;51.690;9.562;2023-12-04T07:51:21;99135.63;;;-1.11;100.00
57708;BME280;43540;51.690;9.562;2023-12-04T07:53:48;99138.09;;;-1.08;100.00
57708;BME280;43540;51.690;9.562;2023-12-04T07:56:14;99127.69;;;-1.05;100.00
57708;BME280;43540;51.690;9.562;2023-12-04T07:58:41;99133.84;;;-1.09;100.00
57708;BME280;43540;51.690;9.562;2023-12-04T08:01:07;99130.41;;;-1.10;100.00
57708;BME280;43540;51.690;9.562;2023-12-04T08:03:34;99133.59;;;-1.03;100.00
57708;BME280;43540;51.690;9.562;2023-12-04T08:06:02;99126.16;;;-1.11;100.00
57708;BME280;43540;51.690;9.562;2023-12-04T08:08:29;99127.47;;;-1.01;100.00
57708;BME280;43540;51.690;9.562;2023-12-04T08:10:57;99120.72;;;-1.03;100.00
57708;BME280;43540;51.690;9.562;2023-12-04T08:13:24;99123.91;;;-0.97;100.00
57708;BME280;43540;51.690;9.562;2023-12-04T08:15:50;99123.38;;;-1.05;100.00
57708;BME280;43540;51.690;9.562;2023-12-04T08:18:17;99124.91;;;-1.01;100.00
57708;BME280;43540;51.690;9.562;2023-12-04T08:20:44;99119.53;;;-0.95;100.00
57708;BME280;43540;51.690;9.562;2023-12-04T08:23:10;99126.25;;;-0.91;100.00
57708;BME280;43540;51.690;9.562;2023-12-04T08:25:37;99113.19;;;-0.86;100.00
57708;BME280;43540;51.690;9.562;2023-12-04T08:28:06;99113.13;;;-0.84;100.00
57708;BME280;43540;51.690;9.562;2023-12-04T08:30:35;99123.00;;;-0.96;100.00
57708;BME280;43540;51.690;9.562;2023-12-04T08:33:02;99110.63;;;-0.86;100.00
57708;BME280;43540;51.690;9.562;2023-12-04T08:35:29;99108.47;;;-0.97;100.00
57708;BME280;43540;51.690;9.562;2023-12-04T08:37:56;99101.28;;;-0.89;100.00
57708;BME280;43540;51.690;9.562;2023-12-04T08:40:22;99101.03;;;-1.26;100.00
57708;BME280;43540;51.690;9.562;2023-12-04T08:42:49;99101.28;;;-1.10;100.00
57708;BME280;43540;51.690;9.562;2023-12-04T08:45:15;99102.66;;;-1.02;100.00
57708;BME280;43540;51.690;9.562;2023-12-04T08:47:45;99104.28;;;-0.99;100.00
57708;BME280;43540;51.690;9.562;2023-12-04T08:50:12;99100.16;;;-0.81;100.00
57708;BME280;43540;51.690;9.562;2023-12-04T08:52:38;99097.88;;;-1.11;100.00
57708;BME280;43540;51.690;9.562;2023-12-04T08:55:09;99096.75;;;-0.82;100.00
57708;BME280;43540;51.690;9.562;2023-12-04T08:57:36;99101.09;;;-0.84;100.00
57708;BME280;43540;51.690;9.562;2023-12-04T09:00:03;99107.28;;;-0.88;100.00
57708;BME280;43540;51.690;9.562;2023-12-04T09:02:30;99107.44;;;-0.93;100.00
57708;BME280;43540;51.690;9.562;2023-12-04T09:04:58;99094.94;;;-0.80;100.00
57708;BME280;43540;51.690;9.562;2023-12-04T09:07:25;99095.78;;;-0.79;100.00
57708;BME280;43540;51.690;9.562;2023-12-04T09:10:12;99095.56;;;-0.75;100.00
57708;BME280;43540;51.690;9.562;2023-12-04T09:12:51;99086.84;;;-0.71;100.00
57708;BME280;43540;51.690;9.562;2023-12-04T09:15:17;99087.03;;;-0.75;100.00
57708;BME280;43540;51.690;9.562;2023-12-04T09:17:44;99085.59;;;-0.82;100.00
57708;BME280;43540;51.690;9.562;2023-12-04T09:20:10;99087.75;;;-0.72;100.00
57708;BME280;43540;51.690;9.562;2023-12-04T09:22:37;99054.06;;;-0.88;100.00
57708;BME280;43540;51.690;9.562;2023-12-04T09:25:17;99087.06;;;-0.97;100.00
57708;BME280;43540;51.690;9.562;2023-12-04T09:27:44;99088.41;;;-0.89;100.00
57708;BME280;43540;51.690;9.562;2023-12-04T09:30:11;99076.50;;;-0.49;100.00
57708;BME280;43540;51.690;9.562;2023-12-04T09:32:39;99077.22;;;-0.45;100.00
57708;BME280;43540;51.690;9.562;2023-12-04T09:35:06;99082.16;;;-0.41;100.00
57708;BME280;43540;51.690;9.562;2023-12-04T09:37:33;99074.44;;;-0.41;100.00
57708;BME280;43540;51.690;9.562;2023-12-04T09:39:59;99075.13;;;-0.37;100.00
57708;BME280;43540;51.690;9.562;2023-12-04T09:42:26;99070.63;;;-0.32;100.00
57708;BME280;43540;51.690;9.562;2023-12-04T09:44:53;99065.41;;;-0.31;100.00
57708;BME280;43540;51.690;9.562;2023-12-04T09:47:22;99060.44;;;-0.15;100.00
57708;BME280;43540;51.690;9.562;2023-12-04T09:49:52;99054.94;;;-0.26;100.00
57708;BME280;43540;51.690;9.562;2023-12-04T09:52:20;99035.91;;;-0.64;100.00
57708;BME280;43540;51.690;9.562;2023-12-04T09:54:47;99049.19;;;-0.33;100.00
57708;BME280;43540;51.690;9.562;2023-12-04T09:57:13;99040.09;;;-0.21;100.00
57708;BME280;43540;51.690;9.562;2023-12-04T09:59:40;99034.75;;;-0.16;100.00
57708;BME280;43540;51.690;9.562;2023-12-04T10:02:09;99028.41;;;-0.69;100.00
57708;BME280;43540;51.690;9.562;2023-12-04T10:04:36;99030.38;;;-0.55;100.00
57708;BME280;43540;51.690;9.562;2023-12-04T10:07:03;99022.59;;;-0.33;100.00
57708;BME280;43540;51.690;9.562;2023-12-04T10:09:30;99017.59;;;-0.36;100.00
57708;BME280;43540;51.690;9.562;2023-12-04T10:11:57;99018.66;;;-0.21;100.00
57708;BME280;43540;51.690;9.562;2023-12-04T10:14:23;99021.38;;;-0.24;100.00
57708;BME280;43540;51.690;9.562;2023-12-04T10:16:52;99009.69;;;-0.13;100.00
57708;BME280;43540;51.690;9.562;2023-12-04T10:21:50;99004.00;;;-0.40;100.00
57708;BME280;43540;51.690;9.562;2023-12-04T10:26:52;98997.44;;;-0.26;100.00
57708;BME280;43540;51.690;9.562;2023-12-04T10:29:19;98990.31;;;-0.21;100.00
57708;BME280;43540;51.690;9.562;2023-12-04T10:31:45;98984.88;;;-0.34;100.00
57708;BME280;43540;51.690;9.562;2023-12-04T10:34:14;98981.13;;;-0.27;100.00
57708;BME280;43540;51.690;9.562;2023-12-04T10:36:40;98970.41;;;-0.18;100.00
57708;BME280;43540;51.690;9.562;2023-12-04T10:39:07;98971.09;;;-0.14;100.00
57708;BME280;43540;51.690;9.562;2023-12-04T10:41:34;98969.00;;;-0.25;100.00
57708;BME280;43540;51.690;9.562;2023-12-04T10:44:01;98951.66;;;-0.21;100.00
57708;BME280;43540;51.690;9.562;2023-12-04T10:46:36;98966.72;;;-0.12;100.00
57708;BME280;43540;51.690;9.562;2023-12-04T10:49:03;98955.44;;;-0.10;100.00
57708;BME280;43540;51.690;9.562;2023-12-04T10:51:32;98946.81;;;-0.09;100.00
57708;BME280;43540;51.690;9.562;2023-12-04T10:54:00;98941.59;;;-0.07;100.00
57708;BME280;43540;51.690;9.562;2023-12-04T10:56:31;98938.59;;;-0.17;100.00
57708;BME280;43540;51.690;9.562;2023-12-04T10:59:00;98926.97;;;-0.07;100.00
57708;BME280;43540;51.690;9.562;2023-12-04T11:01:28;98922.06;;;0.06;100.00
57708;BME280;43540;51.690;9.562;2023-12-04T11:03:56;98917.06;;;0.03;100.00
57708;BME280;43540;51.690;9.562;2023-12-04T11:06:25;98917.50;;;-0.06;100.00
57708;BME280;43540;51.690;9.562;2023-12-04T11:08:55;98910.16;;;0.04;100.00
57708;BME280;43540;51.690;9.562;2023-12-04T11:11:27;98905.59;;;-0.09;100.00
57708;BME280;43540;51.690;9.562;2023-12-04T11:13:58;98906.13;;;-0.02;100.00
57708;BME280;43540;51.690;9.562;2023-12-04T11:16:27;98893.03;;;0.03;100.00
57708;BME280;43540;51.690;9.562;2023-12-04T11:19:01;98895.97;;;-0.05;100.00
57708;BME280;43540;51.690;9.562;2023-12-04T11:21:32;98888.16;;;-0.04;100.00
57708;BME280;43540;51.690;9.562;2023-12-04T11:24:00;98884.03;;;0.11;100.00
57708;BME280;43540;51.690;9.562;2023-12-04T11:26:26;98887.28;;;0.15;100.00
57708;BME280;43540;51.690;9.562;2023-12-04T11:28:53;98874.47;;;0.13;100.00
57708;BME280;43540;51.690;9.562;2023-12-04T11:31:20;98873.25;;;0.03;100.00
57708;BME280;43540;51.690;9.562;2023-12-04T11:33:47;98868.16;;;0.02;100.00
57708;BME280;43540;51.690;9.562;2023-12-04T11:36:13;98865.53;;;0.03;100.00
57708;BME280;43540;51.690;9.562;2023-12-04T11:38:48;98861.19;;;0.04;100.00
57708;BME280;43540;51.690;9.562;2023-12-04T11:41:16;98869.25;;;0.15;100.00
57708;BME280;43540;51.690;9.562;2023-12-04T11:43:48;98863.94;;;0.18;100.00
57708;BME280;43540;51.690;9.562;2023-12-04T11:46:19;98856.56;;;0.29;100.00
57708;BME280;43540;51.690;9.562;2023-12-04T11:48:56;98855.31;;;0.36;100.00
57708;BME280;43540;51.690;9.562;2023-12-04T11:54:08;98835.97;;;0.45;100.00
57708;BME280;43540;51.690;9.562;2023-12-04T11:56:35;98836.81;;;0.45;100.00
57708;BME280;43540;51.690;9.562;2023-12-04T11:59:02;98834.25;;;0.45;100.00
57708;BME280;43540;51.690;9.562;2023-12-04T12:01:38;98822.50;;;0.40;100.00
57708;BME280;43540;51.690;9.562;2023-12-04T12:04:08;98821.97;;;0.33;98.47
57708;BME280;43540;51.690;9.562;2023-12-04T12:06:36;98814.94;;;0.37;99.83
57708;BME280;43540;51.690;9.562;2023-12-04T12:09:04;98812.63;;;0.31;100.00
57708;BME280;43540;51.690;9.562;2023-12-04T12:11:33;98810.50;;;0.21;100.00
57708;BME280;43540;51.690;9.562;2023-12-04T12:14:00;98808.53;;;0.26;100.00
57708;BME280;43540;51.690;9.562;2023-12-04T12:16:27;98807.19;;;0.19;100.00
57708;BME280;43540;51.690;9.562;2023-12-04T12:18:54;98803.53;;;0.23;100.00
57708;BME280;43540;51.690;9.562;2023-12-04T12:21:21;98802.16;;;0.16;100.00
57708;BME280;43540;51.690;9.562;2023-12-04T12:23:48;98798.16;;;0.28;100.00
57708;BME280;43540;51.690;9.562;2023-12-04T12:26:14;98794.66;;;0.29;100.00
57708;BME280;43540;51.690;9.562;2023-12-04T12:28:42;98798.53;;;0.20;100.00
57708;BME280;43540;51.690;9.562;2023-12-04T12:31:09;98795.78;;;0.23;99.48
57708;BME280;43540;51.690;9.562;2023-12-04T12:33:35;98798.84;;;0.32;100.00
57708;BME280;43540;51.690;9.562;2023-12-04T12:36:02;98792.00;;;0.31;100.00
57708;BME280;43540;51.690;9.562;2023-12-04T12:38:30;98790.47;;;0.26;100.00
57708;BME280;43540;51.690;9.562;2023-12-04T12:41:01;98786.22;;;0.25;100.00
57708;BME280;43540;51.690;9.562;2023-12-04T12:43:30;98781.00;;;0.27;100.00
57708;BME280;43540;51.690;9.562;2023-12-04T12:45:57;98768.44;;;0.21;99.75
57708;BME280;43540;51.690;9.562;2023-12-04T12:48:23;98766.84;;;0.18;100.00
57708;BME280;43540;51.690;9.562;2023-12-04T12:50:55;98754.53;;;0.06;99.67
57708;BME280;43540;51.690;9.562;2023-12-04T12:53:23;98753.72;;;0.23;99.23
57708;BME280;43540;51.690;9.562;2023-12-04T12:55:49;98750.38;;;0.21;99.38
57708;BME280;43540;51.690;9.562;2023-12-04T12:58:16;98754.47;;;0.25;100.00
57708;BME280;43540;51.690;9.562;2023-12-04T13:00:47;98743.69;;;0.34;98.14